sensor_id;sensor_type;location;lat;lon;timestamp;temperature;humidity
1297;DHT22;641;48.492;9.184;2023-04-03T00:01:28;5.40;99.90
1297;DHT22;641;48.492;9.184;2023-04-03T00:03:54;5.50;99.90
1297;DHT22;641;48.492;9.184;2023-04-03T00:06:21;5.60;99.90
1297;DHT22;641;48.492;9.184;2023-04-03T00:08:47;5.60;99.90
1297;DHT22;641;48.492;9.184;2023-04-03T00:11:12;5.50;99.90
1297;DHT22;641;48.492;9.184;2023-04-03T00:13:38;5.40;99.90
1297;DHT22;641;48.492;9.184;2023-04-03T00:16:05;5.40;99.90
1297;DHT22;641;48.492;9.184;2023-04-03T00:18:31;5.30;99.90
1297;DHT22;641;48.492;9.184;2023-04-03T00:20:56;5.50;99.90
1297;DHT22;641;48.492;9.184;2023-04-03T00:23:22;5.50;99.90
1297;DHT22;641;48.492;9.184;2023-04-03T00:25:49;5.50;99.90
1297;DHT22;641;48.492;9.184;2023-04-03T00:28:15;5.70;99.90
1297;DHT22;641;48.492;9.184;2023-04-03T00:30:41;5.80;99.90
1297;DHT22;641;48.492;9.184;2023-04-03T00:33:06;5.60;99.90
1297;DHT22;641;48.492;9.184;2023-04-03T00:35:33;5.60;99.90
1297;DHT22;641;48.492;9.184;2023-04-03T00:37:59;5.50;99.90
1297;DHT22;641;48.492;9.184;2023-04-03T00:40:26;5.60;99.90
1297;DHT22;641;48.492;9.184;2023-04-03T00:42:56;5.70;99.90
1297;DHT22;641;48.492;9.184;2023-04-03T00:45:27;5.60;99.90
1297;DHT22;641;48.492;9.184;2023-04-03T00:47:53;5.60;99.90
1297;DHT22;641;48.492;9.184;2023-04-03T00:50:19;5.80;99.90
1297;DHT22;641;48.492;9.184;2023-04-03T00:52:45;5.70;99.90
1297;DHT22;641;48.492;9.184;2023-04-03T00:55:13;5.80;99.90
1297;DHT22;641;48.492;9.184;2023-04-03T00:57:40;5.90;99.90
1297;DHT22;641;48.492;9.184;2023-04-03T01:00:10;6.00;99.90
1297;DHT22;641;48.492;9.184;2023-04-03T01:02:36;5.80;99.90
1297;DHT22;641;48.492;9.184;2023-04-03T01:05:02;5.70;99.90
1297;DHT22;641;48.492;9.184;2023-04-03T01:07:30;5.80;99.90
1297;DHT22;641;48.492;9.184;2023-04-03T01:09:58;5.70;99.90
1297;DHT22;641;48.492;9.184;2023-04-03T01:12:37;5.80;99.90
1297;DHT22;641;48.492;9.184;2023-04-03T01:15:11;5.50;99.90
1297;DHT22;641;48.492;9.184;2023-04-03T01:25:41;5.70;99.90
1297;DHT22;641;48.492;9.184;2023-04-03T01:28:15;5.50;99.90
1297;DHT22;641;48.492;9.184;2023-04-03T01:33:30;5.60;99.90
1297;DHT22;641;48.492;9.184;2023-04-03T01:35:56;5.50;99.90
1297;DHT22;641;48.492;9.184;2023-04-03T01:38:22;5.40;99.90
1297;DHT22;641;48.492;9.184;2023-04-03T01:40:47;5.40;99.90
1297;DHT22;641;48.492;9.184;2023-04-03T01:43:13;5.30;99.90
1297;DHT22;641;48.492;9.184;2023-04-03T01:45:38;5.20;99.90
1297;DHT22;641;48.492;9.184;2023-04-03T01:48:04;5.20;99.90
1297;DHT22;641;48.492;9.184;2023-04-03T01:50:30;5.10;99.90
1297;DHT22;641;48.492;9.184;2023-04-03T01:52:56;5.00;99.90
1297;DHT22;641;48.492;9.184;2023-04-03T01:55:21;5.00;99.90
1297;DHT22;641;48.492;9.184;2023-04-03T01:57:47;4.90;99.90
1297;DHT22;641;48.492;9.184;2023-04-03T02:00:13;5.20;99.90
1297;DHT22;641;48.492;9.184;2023-04-03T02:02:39;5.00;99.90
1297;DHT22;641;48.492;9.184;2023-04-03T02:05:05;4.80;99.90
1297;DHT22;641;48.492;9.184;2023-04-03T02:07:31;5.10;99.90
1297;DHT22;641;48.492;9.184;2023-04-03T02:09:56;5.30;99.90
1297;DHT22;641;48.492;9.184;2023-04-03T02:12:22;5.50;99.90
1297;DHT22;641;48.492;9.184;2023-04-03T02:14:47;5.40;99.90
1297;DHT22;641;48.492;9.184;2023-04-03T02:17:13;5.30;99.90
1297;DHT22;641;48.492;9.184;2023-04-03T02:19:38;5.20;99.90
1297;DHT22;641;48.492;9.184;2023-04-03T02:22:05;5.10;99.90
1297;DHT22;641;48.492;9.184;2023-04-03T02:24:31;5.20;99.90
1297;DHT22;641;48.492;9.184;2023-04-03T02:26:58;5.00;99.90
1297;DHT22;641;48.492;9.184;2023-04-03T02:29:23;5.00;99.90
1297;DHT22;641;48.492;9.184;2023-04-03T02:31:49;5.10;99.90
1297;DHT22;641;48.492;9.184;2023-04-03T02:34:15;5.00;99.90
1297;DHT22;641;48.492;9.184;2023-04-03T02:36:41;5.00;99.90
1297;DHT22;641;48.492;9.184;2023-04-03T02:39:07;4.90;99.90
1297;DHT22;641;48.492;9.184;2023-04-03T02:41:32;5.10;99.90
1297;DHT22;641;48.492;9.184;2023-04-03T02:44:02;5.20;99.90
1297;DHT22;641;48.492;9.184;2023-04-03T02:46:28;5.10;99.90
1297;DHT22;641;48.492;9.184;2023-04-03T02:48:53;5.10;99.90
1297;DHT22;641;48.492;9.184;2023-04-03T02:51:19;5.30;99.90
1297;DHT22;641;48.492;9.184;2023-04-03T02:53:45;5.20;99.90
1297;DHT22;641;48.492;9.184;2023-04-03T02:56:10;5.30;99.90
1297;DHT22;641;48.492;9.184;2023-04-03T02:58:36;5.40;99.90
1297;DHT22;641;48.492;9.184;2023-04-03T03:01:02;4.90;99.90
1297;DHT22;641;48.492;9.184;2023-04-03T03:03:27;4.70;99.90
1297;DHT22;641;48.492;9.184;2023-04-03T03:06:10;5.10;99.90
1297;DHT22;641;48.492;9.184;2023-04-03T03:08:37;5.00;99.90
1297;DHT22;641;48.492;9.184;2023-04-03T03:11:03;4.90;99.90
1297;DHT22;641;48.492;9.184;2023-04-03T03:13:30;5.00;99.90
1297;DHT22;641;48.492;9.184;2023-04-03T03:15:55;5.00;99.90
1297;DHT22;641;48.492;9.184;2023-04-03T03:18:21;4.80;99.90
1297;DHT22;641;48.492;9.184;2023-04-03T03:20:54;4.70;99.90
1297;DHT22;641;48.492;9.184;2023-04-03T03:23:21;4.70;99.90
1297;DHT22;641;48.492;9.184;2023-04-03T03:25:47;4.80;99.90
1297;DHT22;641;48.492;9.184;2023-04-03T03:28:12;5.00;99.90
1297;DHT22;641;48.492;9.184;2023-04-03T03:30:38;5.10;99.90
1297;DHT22;641;48.492;9.184;2023-04-03T03:33:04;4.90;99.90
1297;DHT22;641;48.492;9.184;2023-04-03T03:35:29;4.90;99.90
1297;DHT22;641;48.492;9.184;2023-04-03T03:37:55;4.90;99.90
1297;DHT22;641;48.492;9.184;2023-04-03T03:40:20;4.90;99.90
1297;DHT22;641;48.492;9.184;2023-04-03T03:42:46;4.60;99.90
1297;DHT22;641;48.492;9.184;2023-04-03T03:45:11;4.70;99.90
1297;DHT22;641;48.492;9.184;2023-04-03T03:47:37;4.70;99.90
1297;DHT22;641;48.492;9.184;2023-04-03T03:50:03;4.70;99.90
1297;DHT22;641;48.492;9.184;2023-04-03T03:52:28;4.70;99.90
1297;DHT22;641;48.492;9.184;2023-04-03T03:54:55;4.60;99.90
1297;DHT22;641;48.492;9.184;2023-04-03T03:57:21;4.70;99.90
1297;DHT22;641;48.492;9.184;2023-04-03T03:59:47;5.00;99.90
1297;DHT22;641;48.492;9.184;2023-04-03T04:02:14;5.00;99.90
1297;DHT22;641;48.492;9.184;2023-04-03T04:04:40;5.00;99.90
1297;DHT22;641;48.492;9.184;2023-04-03T04:07:05;4.80;99.90
1297;DHT22;641;48.492;9.184;2023-04-03T04:09:31;4.80;99.90
1297;DHT22;641;48.492;9.184;2023-04-03T04:11:57;4.80;99.90
1297;DHT22;641;48.492;9.184;2023-04-03T04:14:22;4.60;99.90
1297;DHT22;641;48.492;9.184;2023-04-03T04:16:48;4.70;99.90
1297;DHT22;641;48.492;9.184;2023-04-03T04:19:14;4.80;99.90
1297;DHT22;641;48.492;9.184;2023-04-03T04:21:40;4.70;99.90
1297;DHT22;641;48.492;9.184;2023-04-03T04:24:07;4.80;99.90
1297;DHT22;641;48.492;9.184;2023-04-03T04:26:33;4.90;99.90
1297;DHT22;641;48.492;9.184;2023-04-03T04:28:58;4.70;99.90
1297;DHT22;641;48.492;9.184;2023-04-03T04:31:24;4.90;99.90
1297;DHT22;641;48.492;9.184;2023-04-03T04:33:50;5.10;99.90
1297;DHT22;641;48.492;9.184;2023-04-03T04:36:15;5.10;99.90
1297;DHT22;641;48.492;9.184;2023-04-03T04:38:41;5.20;99.90
1297;DHT22;641;48.492;9.184;2023-04-03T04:41:07;5.20;99.90
1297;DHT22;641;48.492;9.184;2023-04-03T04:43:33;5.00;99.90
1297;DHT22;641;48.492;9.184;2023-04-03T04:46:07;4.90;99.90
1297;DHT22;641;48.492;9.184;2023-04-03T04:48:34;4.90;99.90
1297;DHT22;641;48.492;9.184;2023-04-03T04:51:00;5.00;99.90
1297;DHT22;641;48.492;9.184;2023-04-03T04:53:25;4.90;99.90
1297;DHT22;641;48.492;9.184;2023-04-03T04:55:52;4.90;99.90
1297;DHT22;641;48.492;9.184;2023-04-03T04:58:17;4.90;99.90
1297;DHT22;641;48.492;9.184;2023-04-03T05:00:43;4.90;99.90
1297;DHT22;641;48.492;9.184;2023-04-03T05:03:09;4.80;99.90
1297;DHT22;641;48.492;9.184;2023-04-03T05:05:35;4.60;99.90
1297;DHT22;641;48.492;9.184;2023-04-03T05:08:01;4.40;99.90
1297;DHT22;641;48.492;9.184;2023-04-03T05:10:27;4.70;99.90
1297;DHT22;641;48.492;9.184;2023-04-03T05:12:53;4.90;99.90
1297;DHT22;641;48.492;9.184;2023-04-03T05:15:18;4.80;99.90
1297;DHT22;641;48.492;9.184;2023-04-03T05:17:44;5.00;99.90
1297;DHT22;641;48.492;9.184;2023-04-03T05:20:10;4.90;99.90
1297;DHT22;641;48.492;9.184;2023-04-03T05:22:36;4.70;99.90
1297;DHT22;641;48.492;9.184;2023-04-03T05:25:02;4.80;99.90
1297;DHT22;641;48.492;9.184;2023-04-03T05:27:28;4.70;99.90
1297;DHT22;641;48.492;9.184;2023-04-03T05:29:54;4.70;99.90
1297;DHT22;641;48.492;9.184;2023-04-03T05:32:20;4.70;99.90
1297;DHT22;641;48.492;9.184;2023-04-03T05:34:46;4.90;99.90
1297;DHT22;641;48.492;9.184;2023-04-03T05:37:12;4.90;99.90
1297;DHT22;641;48.492;9.184;2023-04-03T05:39:37;4.60;99.90
1297;DHT22;641;48.492;9.184;2023-04-03T05:42:06;4.70;99.90
1297;DHT22;641;48.492;9.184;2023-04-03T05:44:32;4.70;99.90
1297;DHT22;641;48.492;9.184;2023-04-03T05:46:57;4.90;99.90
1297;DHT22;641;48.492;9.184;2023-04-03T05:49:23;4.90;99.90
1297;DHT22;641;48.492;9.184;2023-04-03T05:51:48;5.20;99.90
1297;DHT22;641;48.492;9.184;2023-04-03T05:54:22;5.30;99.90
1297;DHT22;641;48.492;9.184;2023-04-03T05:56:49;4.90;99.90
1297;DHT22;641;48.492;9.184;2023-04-03T05:59:16;5.00;99.90
1297;DHT22;641;48.492;9.184;2023-04-03T06:01:41;5.40;99.90
1297;DHT22;641;48.492;9.184;2023-04-03T06:04:07;5.50;99.90
1297;DHT22;641;48.492;9.184;2023-04-03T06:06:52;5.50;99.90
1297;DHT22;641;48.492;9.184;2023-04-03T06:09:19;5.60;99.90
1297;DHT22;641;48.492;9.184;2023-04-03T06:11:45;5.60;99.90
1297;DHT22;641;48.492;9.184;2023-04-03T06:14:11;5.30;99.90
1297;DHT22;641;48.492;9.184;2023-04-03T06:16:37;5.30;99.90
1297;DHT22;641;48.492;9.184;2023-04-03T06:19:03;5.40;99.90
1297;DHT22;641;48.492;9.184;2023-04-03T06:21:29;5.30;99.90
1297;DHT22;641;48.492;9.184;2023-04-03T06:23:55;5.40;99.90
1297;DHT22;641;48.492;9.184;2023-04-03T06:26:21;5.40;99.90
1297;DHT22;641;48.492;9.184;2023-04-03T06:28:47;5.30;99.90
1297;DHT22;641;48.492;9.184;2023-04-03T06:31:13;5.30;99.90
1297;DHT22;641;48.492;9.184;2023-04-03T06:33:38;5.30;99.90
1297;DHT22;641;48.492;9.184;2023-04-03T06:36:05;5.50;99.90
1297;DHT22;641;48.492;9.184;2023-04-03T06:38:31;5.20;99.90
1297;DHT22;641;48.492;9.184;2023-04-03T06:40:57;5.30;99.90
1297;DHT22;641;48.492;9.184;2023-04-03T06:43:23;5.20;99.90
1297;DHT22;641;48.492;9.184;2023-04-03T06:45:50;5.20;99.90
1297;DHT22;641;48.492;9.184;2023-04-03T06:48:15;5.20;99.90
1297;DHT22;641;48.492;9.184;2023-04-03T06:50:41;5.20;99.90
1297;DHT22;641;48.492;9.184;2023-04-03T06:53:07;6.50;99.90
1297;DHT22;641;48.492;9.184;2023-04-03T06:57:59;5.10;99.90
1297;DHT22;641;48.492;9.184;2023-04-03T07:00:26;5.00;99.90
1297;DHT22;641;48.492;9.184;2023-04-03T07:05:18;5.10;99.90
1297;DHT22;641;48.492;9.184;2023-04-03T07:15:04;5.40;99.90
1297;DHT22;641;48.492;9.184;2023-04-03T07:17:30;5.50;99.90
1297;DHT22;641;48.492;9.184;2023-04-03T07:19:56;5.50;99.90
1297;DHT22;641;48.492;9.184;2023-04-03T07:22:22;5.50;99.90
1297;DHT22;641;48.492;9.184;2023-04-03T07:24:48;5.50;99.90
1297;DHT22;641;48.492;9.184;2023-04-03T07:29:39;5.40;99.90
1297;DHT22;641;48.492;9.184;2023-04-03T07:34:32;5.50;99.90
1297;DHT22;641;48.492;9.184;2023-04-03T07:36:58;5.50;99.90
1297;DHT22;641;48.492;9.184;2023-04-03T07:39:25;5.60;99.90
1297;DHT22;641;48.492;9.184;2023-04-03T07:41:51;5.90;99.90
1297;DHT22;641;48.492;9.184;2023-04-03T07:46:43;6.00;99.90
1297;DHT22;641;48.492;9.184;2023-04-03T07:49:12;7.00;99.90
1297;DHT22;641;48.492;9.184;2023-04-03T07:51:37;7.20;99.90
1297;DHT22;641;48.492;9.184;2023-04-03T07:54:03;6.00;99.90
1297;DHT22;641;48.492;9.184;2023-04-03T07:56:29;7.70;99.90
1297;DHT22;641;48.492;9.184;2023-04-03T07:58:55;6.20;99.90
1297;DHT22;641;48.492;9.184;2023-04-03T08:01:21;6.30;99.90
1297;DHT22;641;48.492;9.184;2023-04-03T08:03:47;7.80;99.90
1297;DHT22;641;48.492;9.184;2023-04-03T08:08:40;6.00;99.90
1297;DHT22;641;48.492;9.184;2023-04-03T08:11:06;7.50;99.90
1297;DHT22;641;48.492;9.184;2023-04-03T08:13:34;6.80;99.90
1297;DHT22;641;48.492;9.184;2023-04-03T08:16:12;6.30;99.90
1297;DHT22;641;48.492;9.184;2023-04-03T08:18:38;6.50;99.90
1297;DHT22;641;48.492;9.184;2023-04-03T08:21:09;6.50;99.90
1297;DHT22;641;48.492;9.184;2023-04-03T08:23:36;7.30;99.90
1297;DHT22;641;48.492;9.184;2023-04-03T08:26:07;6.60;99.90
1297;DHT22;641;48.492;9.184;2023-04-03T08:28:32;6.50;99.90
1297;DHT22;641;48.492;9.184;2023-04-03T08:31:03;6.50;99.90
1297;DHT22;641;48.492;9.184;2023-04-03T08:33:33;6.50;99.90
1297;DHT22;641;48.492;9.184;2023-04-03T08:35:59;6.50;99.90
1297;DHT22;641;48.492;9.184;2023-04-03T08:38:25;6.60;99.90
1297;DHT22;641;48.492;9.184;2023-04-03T08:46:39;6.70;99.90
1297;DHT22;641;48.492;9.184;2023-04-03T08:49:13;7.00;99.90
1297;DHT22;641;48.492;9.184;2023-04-03T08:51:43;7.10;99.90
1297;DHT22;641;48.492;9.184;2023-04-03T08:54:36;6.90;99.80
1297;DHT22;641;48.492;9.184;2023-04-03T08:57:05;6.80;99.90
1297;DHT22;641;48.492;9.184;2023-04-03T08:59:35;6.80;99.90
1297;DHT22;641;48.492;9.184;2023-04-03T09:02:12;6.90;99.90
1297;DHT22;641;48.492;9.184;2023-04-03T09:04:40;6.80;99.90
1297;DHT22;641;48.492;9.184;2023-04-03T09:07:10;6.80;99.90
1297;DHT22;641;48.492;9.184;2023-04-03T09:09:41;8.30;99.90
1297;DHT22;641;48.492;9.184;2023-04-03T09:12:42;7.40;99.90
1297;DHT22;641;48.492;9.184;2023-04-03T09:15:20;7.10;99.60
1297;DHT22;641;48.492;9.184;2023-04-03T09:18:00;6.90;99.70
1297;DHT22;641;48.492;9.184;2023-04-03T09:20:52;7.20;99.50
1297;DHT22;641;48.492;9.184;2023-04-03T09:23:36;7.00;99.90
1297;DHT22;641;48.492;9.184;2023-04-03T09:26:11;6.80;99.90
1297;DHT22;641;48.492;9.184;2023-04-03T09:28:41;7.20;99.90
1297;DHT22;641;48.492;9.184;2023-04-03T09:31:27;7.30;99.90
1297;DHT22;641;48.492;9.184;2023-04-03T09:34:01;7.80;99.90
1297;DHT22;641;48.492;9.184;2023-04-03T09:36:58;7.60;99.90
1297;DHT22;641;48.492;9.184;2023-04-03T09:39:29;8.10;99.30
1297;DHT22;641;48.492;9.184;2023-04-03T09:42:11;7.50;99.00
1297;DHT22;641;48.492;9.184;2023-04-03T09:44:40;7.50;99.20
1297;DHT22;641;48.492;9.184;2023-04-03T09:47:28;7.90;98.40
1297;DHT22;641;48.492;9.184;2023-04-03T09:50:20;7.30;98.40
1297;DHT22;641;48.492;9.184;2023-04-03T09:52:49;7.20;98.60
1297;DHT22;641;48.492;9.184;2023-04-03T09:55:25;7.60;99.10
1297;DHT22;641;48.492;9.184;2023-04-03T09:58:02;7.30;98.60
1297;DHT22;641;48.492;9.184;2023-04-03T10:00:38;7.30;98.20
1297;DHT22;641;48.492;9.184;2023-04-03T10:03:21;7.00;99.10
1297;DHT22;641;48.492;9.184;2023-04-03T10:05:48;8.60;99.50
1297;DHT22;641;48.492;9.184;2023-04-03T10:10:46;7.30;99.00
1297;DHT22;641;48.492;9.184;2023-04-03T10:13:17;7.30;99.40
1297;DHT22;641;48.492;9.184;2023-04-03T10:16:12;7.50;99.80
1297;DHT22;641;48.492;9.184;2023-04-03T10:18:44;7.90;98.40
1297;DHT22;641;48.492;9.184;2023-04-03T10:21:20;8.00;98.40
1297;DHT22;641;48.492;9.184;2023-04-03T10:23:53;7.90;99.10
1297;DHT22;641;48.492;9.184;2023-04-03T10:32:22;7.80;97.60
1297;DHT22;641;48.492;9.184;2023-04-03T10:34:57;7.60;97.70
1297;DHT22;641;48.492;9.184;2023-04-03T10:37:32;8.30;98.10
1297;DHT22;641;48.492;9.184;2023-04-03T10:40:21;9.10;98.30
1297;DHT22;641;48.492;9.184;2023-04-03T10:43:18;7.70;97.80
1297;DHT22;641;48.492;9.184;2023-04-03T10:51:40;7.20;97.00
1297;DHT22;641;48.492;9.184;2023-04-03T10:54:25;7.10;97.00
1297;DHT22;641;48.492;9.184;2023-04-03T10:57:04;8.20;97.80
1297;DHT22;641;48.492;9.184;2023-04-03T10:59:37;6.90;98.10
1297;DHT22;641;48.492;9.184;2023-04-03T11:04:51;7.30;96.10
1297;DHT22;641;48.492;9.184;2023-04-03T11:07:27;7.30;96.60
1297;DHT22;641;48.492;9.184;2023-04-03T11:10:02;9.10;97.00
1297;DHT22;641;48.492;9.184;2023-04-03T11:12:52;7.30;95.20
1297;DHT22;641;48.492;9.184;2023-04-03T11:15:25;7.20;95.30
1297;DHT22;641;48.492;9.184;2023-04-03T11:18:00;7.60;96.40
1297;DHT22;641;48.492;9.184;2023-04-03T11:27:17;7.60;95.50
1297;DHT22;641;48.492;9.184;2023-04-03T11:29:48;7.70;96.00
1297;DHT22;641;48.492;9.184;2023-04-03T11:35:02;8.70;97.70
1297;DHT22;641;48.492;9.184;2023-04-03T11:37:35;7.50;96.30
1297;DHT22;641;48.492;9.184;2023-04-03T11:42:42;7.40;96.20
1297;DHT22;641;48.492;9.184;2023-04-03T11:50:47;7.50;95.10
1297;DHT22;641;48.492;9.184;2023-04-03T11:55:46;7.20;96.00
1297;DHT22;641;48.492;9.184;2023-04-03T11:58:24;7.40;95.30
1297;DHT22;641;48.492;9.184;2023-04-03T12:11:25;7.10;96.00
1297;DHT22;641;48.492;9.184;2023-04-03T12:16:27;7.40;95.10
1297;DHT22;641;48.492;9.184;2023-04-03T12:18:54;7.40;94.50
1297;DHT22;641;48.492;9.184;2023-04-03T12:26:38;7.40;94.90
1297;DHT22;641;48.492;9.184;2023-04-03T12:29:16;7.40;96.30
1297;DHT22;641;48.492;9.184;2023-04-03T12:34:44;8.00;94.70
1297;DHT22;641;48.492;9.184;2023-04-03T12:45:23;7.50;95.20
1297;DHT22;641;48.492;9.184;2023-04-03T12:47:51;7.60;94.90
1297;DHT22;641;48.492;9.184;2023-04-03T12:50:32;7.60;95.00
1297;DHT22;641;48.492;9.184;2023-04-03T12:53:06;7.60;94.30
1297;DHT22;641;48.492;9.184;2023-04-03T12:55:32;7.60;94.10
1297;DHT22;641;48.492;9.184;2023-04-03T12:58:13;7.80;93.60
1297;DHT22;641;48.492;9.184;2023-04-03T13:00:44;7.80;94.20
1297;DHT22;641;48.492;9.184;2023-04-03T13:03:25;7.70;93.20
1297;DHT22;641;48.492;9.184;2023-04-03T13:05:54;7.60;93.50
1297;DHT22;641;48.492;9.184;2023-04-03T13:08:21;7.50;93.70
1297;DHT22;641;48.492;9.184;2023-04-03T13:10:58;7.70;94.50
1297;DHT22;641;48.492;9.184;2023-04-03T13:13:25;7.80;93.30
1297;DHT22;641;48.492;9.184;2023-04-03T13:15:52;7.90;93.00
1297;DHT22;641;48.492;9.184;2023-04-03T13:18:34;7.80;93.20
1297;DHT22;641;48.492;9.184;2023-04-03T13:21:17;7.80;93.50
1297;DHT22;641;48.492;9.184;2023-04-03T13:23:46;7.70;93.50
1297;DHT22;641;48.492;9.184;2023-04-03T13:26:12;7.60;92.70
1297;DHT22;641;48.492;9.184;2023-04-03T13:28:42;7.60;93.00
1297;DHT22;641;48.492;9.184;2023-04-03T13:36:41;7.70;92.50
1297;DHT22;641;48.492;9.184;2023-04-03T13:41:46;7.10;93.60
1297;DHT22;641;48.492;9.184;2023-04-03T13:44:34;7.30;93.80
1297;DHT22;641;48.492;9.184;2023-04-03T13:47:17;7.20;93.20
1297;DHT22;641;48.492;9.184;2023-04-03T13:50:14;7.20;93.80
1297;DHT22;641;48.492;9.184;2023-04-03T13:52:42;7.30;94.30
1297;DHT22;641;48.492;9.184;2023-04-03T13:55:18;7.40;93.90
1297;DHT22;641;48.492;9.184;2023-04-03T13:57:55;7.40;93.80
1297;DHT22;641;48.492;9.184;2023-04-03T14:00:30;7.50;93.30
1297;DHT22;641;48.492;9.184;2023-04-03T14:02:57;7.60;93.60
1297;DHT22;641;48.492;9.184;2023-04-03T14:05:23;7.70;94.50
1297;DHT22;641;48.492;9.184;2023-04-03T14:07:51;7.70;94.10
1297;DHT22;641;48.492;9.184;2023-04-03T14:10:17;7.70;93.90
1297;DHT22;641;48.492;9.184;2023-04-03T14:12:43;8.00;92.70
1297;DHT22;641;48.492;9.184;2023-04-03T14:15:28;8.00;93.10
1297;DHT22;641;48.492;9.184;2023-04-03T14:17:54;7.80;93.40
1297;DHT22;641;48.492;9.184;2023-04-03T14:20:22;7.70;93.10
1297;DHT22;641;48.492;9.184;2023-04-03T14:22:49;7.60;93.20
1297;DHT22;641;48.492;9.184;2023-04-03T14:25:17;7.80;93.80
1297;DHT22;641;48.492;9.184;2023-04-03T14:27:45;8.20;92.40
1297;DHT22;641;48.492;9.184;2023-04-03T14:30:32;8.20;92.30
1297;DHT22;641;48.492;9.184;2023-04-03T14:32:58;7.90;92.60
1297;DHT22;641;48.492;9.184;2023-04-03T14:35:25;8.00;93.30
1297;DHT22;641;48.492;9.184;2023-04-03T14:37:52;8.20;93.10
1297;DHT22;641;48.492;9.184;2023-04-03T14:40:24;8.20;92.40
1297;DHT22;641;48.492;9.184;2023-04-03T14:42:50;8.20;92.50
1297;DHT22;641;48.492;9.184;2023-04-03T14:45:17;8.10;92.60
1297;DHT22;641;48.492;9.184;2023-04-03T14:47:52;7.80;92.40
1297;DHT22;641;48.492;9.184;2023-04-03T14:50:24;7.80;92.10
1297;DHT22;641;48.492;9.184;2023-04-03T14:52:52;7.70;91.90
1297;DHT22;641;48.492;9.184;2023-04-03T14:55:20;7.30;92.30
1297;DHT22;641;48.492;9.184;2023-04-03T14:57:46;7.50;92.80
1297;DHT22;641;48.492;9.184;2023-04-03T15:00:16;7.40;92.80
1297;DHT22;641;48.492;9.184;2023-04-03T15:02:42;7.40;92.70
1297;DHT22;641;48.492;9.184;2023-04-03T15:05:09;7.50;91.90
1297;DHT22;641;48.492;9.184;2023-04-03T15:07:44;7.50;92.00
1297;DHT22;641;48.492;9.184;2023-04-03T15:10:20;7.60;91.90
1297;DHT22;641;48.492;9.184;2023-04-03T15:12:48;8.50;91.80
1297;DHT22;641;48.492;9.184;2023-04-03T15:15:17;7.50;91.50
1297;DHT22;641;48.492;9.184;2023-04-03T15:17:43;7.50;91.60
1297;DHT22;641;48.492;9.184;2023-04-03T15:20:28;7.60;92.10
1297;DHT22;641;48.492;9.184;2023-04-03T15:22:56;7.70;91.70
1297;DHT22;641;48.492;9.184;2023-04-03T15:25:22;7.60;92.00
1297;DHT22;641;48.492;9.184;2023-04-03T15:27:48;8.10;91.20
1297;DHT22;641;48.492;9.184;2023-04-03T15:30:17;7.70;91.80
1297;DHT22;641;48.492;9.184;2023-04-03T15:32:43;7.80;91.50
1297;DHT22;641;48.492;9.184;2023-04-03T15:35:09;7.90;91.40
1297;DHT22;641;48.492;9.184;2023-04-03T15:37:34;7.70;90.80
1297;DHT22;641;48.492;9.184;2023-04-03T15:40:00;7.40;92.30
1297;DHT22;641;48.492;9.184;2023-04-03T15:42:26;7.40;92.20
1297;DHT22;641;48.492;9.184;2023-04-03T15:44:52;8.60;92.50
1297;DHT22;641;48.492;9.184;2023-04-03T15:47:17;7.40;91.90
1297;DHT22;641;48.492;9.184;2023-04-03T15:49:43;7.50;90.70
1297;DHT22;641;48.492;9.184;2023-04-03T15:52:09;8.40;91.80
1297;DHT22;641;48.492;9.184;2023-04-03T15:54:35;8.40;91.10
1297;DHT22;641;48.492;9.184;2023-04-03T15:57:00;9.20;93.20
1297;DHT22;641;48.492;9.184;2023-04-03T15:59:26;7.40;91.50
1297;DHT22;641;48.492;9.184;2023-04-03T16:01:52;7.60;91.70
1297;DHT22;641;48.492;9.184;2023-04-03T16:04:18;8.90;92.00
1297;DHT22;641;48.492;9.184;2023-04-03T16:06:46;7.70;91.90
1297;DHT22;641;48.492;9.184;2023-04-03T16:09:11;8.00;91.10
1297;DHT22;641;48.492;9.184;2023-04-03T16:11:37;7.80;90.70
1297;DHT22;641;48.492;9.184;2023-04-03T16:14:06;7.80;90.90
1297;DHT22;641;48.492;9.184;2023-04-03T16:16:31;7.90;90.30
1297;DHT22;641;48.492;9.184;2023-04-03T16:18:57;7.70;90.90
1297;DHT22;641;48.492;9.184;2023-04-03T16:21:23;7.70;91.70
1297;DHT22;641;48.492;9.184;2023-04-03T16:23:49;7.80;92.00
1297;DHT22;641;48.492;9.184;2023-04-03T16:26:15;7.80;90.50
1297;DHT22;641;48.492;9.184;2023-04-03T16:28:42;7.80;90.20
1297;DHT22;641;48.492;9.184;2023-04-03T16:31:08;7.80;90.70
1297;DHT22;641;48.492;9.184;2023-04-03T16:33:34;8.00;89.50
1297;DHT22;641;48.492;9.184;2023-04-03T16:36:00;7.60;90.10
1297;DHT22;641;48.492;9.184;2023-04-03T16:38:26;8.70;89.70
1297;DHT22;641;48.492;9.184;2023-04-03T16:40:52;7.50;88.70
1297;DHT22;641;48.492;9.184;2023-04-03T16:43:22;7.40;88.90
1297;DHT22;641;48.492;9.184;2023-04-03T16:45:47;7.40;89.30
1297;DHT22;641;48.492;9.184;2023-04-03T16:48:13;7.30;88.90
1297;DHT22;641;48.492;9.184;2023-04-03T16:50:39;7.30;89.50
1297;DHT22;641;48.492;9.184;2023-04-03T16:53:04;7.40;89.80
1297;DHT22;641;48.492;9.184;2023-04-03T16:55:33;7.10;90.30
1297;DHT22;641;48.492;9.184;2023-04-03T16:57:59;7.20;90.60
1297;DHT22;641;48.492;9.184;2023-04-03T17:00:24;7.40;90.30
1297;DHT22;641;48.492;9.184;2023-04-03T17:02:50;7.50;89.00
1297;DHT22;641;48.492;9.184;2023-04-03T17:05:16;7.40;87.10
1297;DHT22;641;48.492;9.184;2023-04-03T17:07:42;7.30;88.80
1297;DHT22;641;48.492;9.184;2023-04-03T17:10:08;7.40;90.00
1297;DHT22;641;48.492;9.184;2023-04-03T17:12:33;7.30;87.70
1297;DHT22;641;48.492;9.184;2023-04-03T17:14:59;7.20;88.50
1297;DHT22;641;48.492;9.184;2023-04-03T17:17:25;8.40;91.10
1297;DHT22;641;48.492;9.184;2023-04-03T17:19:51;8.40;90.40
1297;DHT22;641;48.492;9.184;2023-04-03T17:22:19;8.60;90.80
1297;DHT22;641;48.492;9.184;2023-04-03T17:24:45;7.70;90.40
1297;DHT22;641;48.492;9.184;2023-04-03T17:27:10;7.00;89.60
1297;DHT22;641;48.492;9.184;2023-04-03T17:34:28;7.00;90.40
1297;DHT22;641;48.492;9.184;2023-04-03T17:41:46;7.20;90.00
1297;DHT22;641;48.492;9.184;2023-04-03T17:44:13;6.90;90.60
1297;DHT22;641;48.492;9.184;2023-04-03T17:46:39;7.30;90.60
1297;DHT22;641;48.492;9.184;2023-04-03T17:49:05;7.40;90.10
1297;DHT22;641;48.492;9.184;2023-04-03T17:51:30;7.10;90.40
1297;DHT22;641;48.492;9.184;2023-04-03T17:53:59;7.00;90.30
1297;DHT22;641;48.492;9.184;2023-04-03T17:56:25;6.80;89.10
1297;DHT22;641;48.492;9.184;2023-04-03T17:58:55;6.80;90.20
1297;DHT22;641;48.492;9.184;2023-04-03T18:01:25;6.60;89.60
1297;DHT22;641;48.492;9.184;2023-04-03T18:03:53;6.60;89.90
1297;DHT22;641;48.492;9.184;2023-04-03T18:06:22;6.60;90.60
1297;DHT22;641;48.492;9.184;2023-04-03T18:08:54;6.60;90.20
1297;DHT22;641;48.492;9.184;2023-04-03T18:11:24;6.40;90.40
1297;DHT22;641;48.492;9.184;2023-04-03T18:13:52;6.40;90.30
1297;DHT22;641;48.492;9.184;2023-04-03T18:16:18;6.30;90.70
1297;DHT22;641;48.492;9.184;2023-04-03T18:18:44;6.40;90.70
1297;DHT22;641;48.492;9.184;2023-04-03T18:21:14;6.30;90.60
1297;DHT22;641;48.492;9.184;2023-04-03T18:23:48;6.40;90.80
1297;DHT22;641;48.492;9.184;2023-04-03T18:26:15;6.40;91.20
1297;DHT22;641;48.492;9.184;2023-04-03T18:28:43;6.30;91.80
1297;DHT22;641;48.492;9.184;2023-04-03T18:31:10;6.40;91.30
1297;DHT22;641;48.492;9.184;2023-04-03T18:33:37;6.30;90.50
1297;DHT22;641;48.492;9.184;2023-04-03T18:36:03;6.20;90.90
1297;DHT22;641;48.492;9.184;2023-04-03T18:38:29;6.20;90.80
1297;DHT22;641;48.492;9.184;2023-04-03T18:40:55;6.30;91.40
1297;DHT22;641;48.492;9.184;2023-04-03T18:43:22;6.40;90.80
1297;DHT22;641;48.492;9.184;2023-04-03T18:45:49;6.30;91.30
1297;DHT22;641;48.492;9.184;2023-04-03T18:48:14;6.30;90.90